Time;durP1;ratioP1;P1;durP2;ratioP2;P2;SDS_P1;SDS_P2;PMS_P1;PMS_P2;Temp;Humidity;BMP_temperature;BMP_pressure;BME280_temperature;BME280_humidity;BME280_pressure;Samples;Min_cycle;Max_cycle;Signal;HPM_P1;HPM_P2
2021/08/13 00:02:04;;;;;;;8.53;6.33;;;19.40;99.90;;;;;;5007528;28;20279;-49
2021/08/13 00:04:31;;;;;;;8.20;7.17;;;19.40;99.90;;;;;;5007964;28;20209;-48
2021/08/13 00:06:58;;;;;;;9.40;7.00;;;19.30;99.90;;;;;;5009049;28;20204;-48
2021/08/13 00:09:24;;;;;;;8.10;6.93;;;19.30;99.90;;;;;;5008528;28;20300;-48
2021/08/13 00:11:51;;;;;;;13.20;7.33;;;19.40;99.90;;;;;;5023143;28;20287;-48
2021/08/13 00:14:18;;;;;;;8.60;7.37;;;19.20;99.90;;;;;;5009078;28;20609;-49
2021/08/13 00:16:45;;;;;;;9.13;8.07;;;19.10;99.90;;;;;;5008005;28;20205;-48
2021/08/13 00:19:12;;;;;;;11.97;8.37;;;19.00;99.90;;;;;;5007475;28;20316;-48
2021/08/13 00:21:40;;;;;;;11.97;8.10;;;19.10;99.90;;;;;;5007924;28;20737;-48
2021/08/13 00:24:07;;;;;;;10.10;7.80;;;19.00;99.90;;;;;;5008529;28;20247;-49
2021/08/13 00:26:33;;;;;;;10.37;7.87;;;19.00;99.90;;;;;;5008543;28;20295;-48
2021/08/13 00:29:00;;;;;;;10.57;8.27;;;19.00;99.90;;;;;;5008044;28;20279;-49
2021/08/13 00:31:28;;;;;;;13.27;8.83;;;19.00;99.90;;;;;;5008481;28;20292;-48
2021/08/13 00:33:55;;;;;;;14.07;9.47;;;18.90;99.90;;;;;;5007391;28;20228;-48
2021/08/13 00:36:21;;;;;;;15.53;9.00;;;19.00;99.90;;;;;;5008009;28;20296;-49
2021/08/13 00:38:48;;;;;;;14.53;9.23;;;19.10;99.90;;;;;;5007715;28;20205;-48
2021/08/13 00:41:15;;;;;;;10.70;9.03;;;19.10;99.90;;;;;;5007651;28;20269;-48
2021/08/13 00:43:42;;;;;;;12.57;10.07;;;19.10;99.90;;;;;;5007668;28;20280;-48
2021/08/13 00:46:08;;;;;;;11.80;9.17;;;19.20;99.90;;;;;;5007708;28;20304;-48
2021/08/13 00:48:37;;;;;;;10.00;8.90;;;19.20;99.90;;;;;;5007995;28;20216;-48
2021/08/13 00:51:05;;;;;;;11.87;9.47;;;19.00;99.90;;;;;;5007854;28;20221;-49
2021/08/13 00:53:31;;;;;;;13.13;9.97;;;19.00;99.90;;;;;;5007315;28;20614;-48
2021/08/13 00:55:59;;;;;;;13.13;10.07;;;19.10;99.90;;;;;;5007542;28;20208;-49
2021/08/13 00:58:26;;;;;;;13.50;10.33;;;19.10;99.90;;;;;;5007543;28;20292;-49
2021/08/13 01:00:53;;;;;;;15.20;11.07;;;19.10;99.90;;;;;;5007476;28;20241;-48
2021/08/13 01:03:20;;;;;;;12.17;9.80;;;19.20;99.90;;;;;;5007676;28;20209;-49
2021/08/13 01:05:47;;;;;;;15.63;10.37;;;19.10;99.90;;;;;;5007069;28;20377;-48
2021/08/13 01:08:14;;;;;;;13.87;10.77;;;19.10;99.90;;;;;;5007391;28;20636;-49
2021/08/13 01:10:52;;;;;;;14.60;9.70;;;19.10;99.90;;;;;;5007455;28;20221;-49
2021/08/13 01:13:44;;;;;;;14.33;10.67;;;19.20;99.90;;;;;;5009675;28;20732;-49
2021/08/13 01:16:16;;;;;;;16.40;11.83;;;19.30;99.90;;;;;;4995327;28;20741;-48
2021/08/13 01:18:51;;;;;;;15.77;11.67;;;19.20;99.90;;;;;;5010894;28;20256;-48
2021/08/13 01:21:39;;;;;;;21.03;12.83;;;19.10;99.90;;;;;;5011044;28;20314;-48
2021/08/13 01:24:16;;;;;;;16.23;11.43;;;19.10;99.90;;;;;;5011631;28;20742;-49
2021/08/13 01:27:08;;;;;;;18.90;12.13;;;19.20;99.90;;;;;;5010931;28;20205;-48
2021/08/13 01:29:54;;;;;;;14.13;10.57;;;19.20;99.90;;;;;;5005554;28;20256;-49
2021/08/13 01:32:32;;;;;;;14.83;11.47;;;19.10;99.90;;;;;;5011436;28;20685;-48
2021/08/13 01:35:04;;;;;;;16.67;12.23;;;19.20;99.90;;;;;;5010196;28;20299;-48
2021/08/13 01:37:33;;;;;;;17.73;11.83;;;19.20;99.90;;;;;;5011309;28;20210;-48
2021/08/13 01:40:01;;;;;;;15.87;11.57;;;19.20;99.90;;;;;;5010577;28;20320;-48
2021/08/13 01:42:31;;;;;;;15.07;11.67;;;19.00;99.90;;;;;;5011335;28;20609;-48
2021/08/13 01:44:59;;;;;;;16.00;11.83;;;19.10;99.90;;;;;;5011059;28;20333;-48
2021/08/13 01:47:27;;;;;;;19.17;13.37;;;19.10;99.90;;;;;;5011543;28;20208;-48
2021/08/13 01:49:54;;;;;;;16.30;12.40;;;18.90;99.90;;;;;;5010325;28;20221;-48
2021/08/13 01:52:22;;;;;;;16.20;12.10;;;19.00;99.90;;;;;;5010441;28;20318;-48
2021/08/13 01:54:49;;;;;;;19.40;13.43;;;19.10;99.90;;;;;;5010326;28;20792;-49
2021/08/13 01:57:17;;;;;;;20.03;14.50;;;19.10;99.90;;;;;;5010998;28;20205;-48
2021/08/13 01:59:44;;;;;;;17.33;13.70;;;19.00;99.90;;;;;;5010331;28;20248;-48
2021/08/13 02:02:11;;;;;;;20.53;14.43;;;18.90;99.90;;;;;;5010728;28;20620;-49
2021/08/13 02:04:42;;;;;;;17.93;13.50;;;18.90;99.90;;;;;;5010199;28;20301;-48
2021/08/13 02:07:11;;;;;;;19.57;15.00;;;18.90;99.90;;;;;;5010924;28;20249;-48
2021/08/13 02:09:39;;;;;;;21.53;16.80;;;19.00;99.90;;;;;;5010451;28;20293;-48
2021/08/13 02:12:06;;;;;;;24.47;16.27;;;18.90;99.90;;;;;;5010584;28;20259;-48
2021/08/13 02:14:33;;;;;;;24.37;16.30;;;18.70;99.90;;;;;;5010873;28;20213;-49
2021/08/13 02:17:02;;;;;;;20.17;15.53;;;18.70;99.90;;;;;;5010612;28;20593;-49
2021/08/13 02:19:36;;;;;;;22.53;16.37;;;18.60;99.90;;;;;;5010450;28;20292;-49
2021/08/13 02:22:03;;;;;;;20.90;15.40;;;18.50;99.90;;;;;;5010653;28;20627;-49
2021/08/13 02:24:30;;;;;;;22.73;15.67;;;18.50;99.90;;;;;;5009998;28;20231;-48
2021/08/13 02:26:58;;;;;;;20.03;15.37;;;18.40;99.90;;;;;;5010348;28;20213;-48
2021/08/13 02:29:25;;;;;;;24.10;15.97;;;18.50;99.90;;;;;;5010356;28;20217;-49
2021/08/13 02:31:52;;;;;;;22.27;15.07;;;18.70;99.90;;;;;;5010315;28;20267;-48
2021/08/13 02:34:18;;;;;;;19.73;14.20;;;18.80;99.90;;;;;;5010141;28;20244;-49
2021/08/13 02:36:57;;;;;;;21.23;14.50;;;18.60;99.90;;;;;;5010429;28;20244;-48
2021/08/13 02:39:32;;;;;;;19.37;13.93;;;18.80;99.90;;;;;;5009372;28;20283;-49
2021/08/13 02:42:02;;;;;;;22.73;15.07;;;18.90;99.90;;;;;;5009698;28;20653;-48
2021/08/13 02:44:32;;;;;;;21.80;14.47;;;18.90;99.90;;;;;;5009349;28;20313;-49
2021/08/13 02:47:04;;;;;;;21.70;14.90;;;19.00;99.90;;;;;;5009763;28;20248;-48
2021/08/13 02:49:32;;;;;;;18.20;13.33;;;18.90;99.90;;;;;;5009288;28;20293;-49
2021/08/13 02:52:06;;;;;;;18.23;14.53;;;18.70;99.90;;;;;;5009523;28;20261;-49
2021/08/13 02:54:35;;;;;;;22.13;15.90;;;18.60;99.90;;;;;;5009173;28;20256;-48
2021/08/13 02:57:04;;;;;;;21.17;14.67;;;18.50;99.90;;;;;;5009826;28;20251;-48
2021/08/13 02:59:33;;;;;;;21.07;14.00;;;18.70;99.90;;;;;;5009639;28;20222;-49
2021/08/13 03:02:02;;;;;;;20.63;14.77;;;18.90;99.90;;;;;;5009641;28;20289;-48
2021/08/13 03:04:30;;;;;;;19.17;14.53;;;18.80;99.90;;;;;;5008841;28;20606;-49
2021/08/13 03:06:58;;;;;;;20.77;14.53;;;18.60;99.90;;;;;;5009672;28;20281;-48
2021/08/13 03:09:25;;;;;;;20.40;14.80;;;18.50;99.90;;;;;;5008854;28;20294;-48
2021/08/13 03:11:54;;;;;;;20.97;14.97;;;18.50;99.90;;;;;;5009337;28;20313;-48
2021/08/13 03:14:22;;;;;;;22.90;15.80;;;18.30;99.90;;;;;;5009067;28;20322;-48
2021/08/13 03:16:51;;;;;;;20.83;15.13;;;18.30;99.90;;;;;;5009057;28;20256;-48
2021/08/13 03:19:20;;;;;;;21.53;15.13;;;18.20;99.90;;;;;;5008838;28;20606;-48
2021/08/13 03:21:47;;;;;;;22.00;14.30;;;18.10;99.90;;;;;;5008829;28;20304;-48
2021/08/13 03:24:14;;;;;;;20.97;15.20;;;18.10;99.90;;;;;;5009098;28;20242;-49
2021/08/13 03:26:41;;;;;;;20.97;14.30;;;18.20;99.90;;;;;;5008928;28;20210;-48
2021/08/13 03:29:08;;;;;;;21.77;14.57;;;18.20;99.90;;;;;;5009073;28;20317;-48
2021/08/13 03:31:43;;;;;;;21.30;14.13;;;18.40;99.90;;;;;;5008829;28;20261;-48
2021/08/13 03:34:10;;;;;;;22.47;14.23;;;18.30;99.90;;;;;;5008783;28;20628;-48
2021/08/13 03:36:38;;;;;;;21.03;14.93;;;18.40;99.90;;;;;;5008850;28;20252;-49
2021/08/13 03:39:06;;;;;;;18.63;13.43;;;18.40;99.90;;;;;;5008278;28;20616;-48
2021/08/13 03:41:34;;;;;;;20.50;14.20;;;18.50;99.90;;;;;;5008396;28;20241;-48
2021/08/13 03:44:01;;;;;;;22.70;15.00;;;18.40;99.90;;;;;;5008600;28;20301;-48
2021/08/13 03:46:28;;;;;;;23.57;14.63;;;18.50;99.90;;;;;;5015670;28;20274;-48
2021/08/13 03:48:55;;;;;;;20.83;13.93;;;18.40;99.90;;;;;;5008017;28;20290;-48
2021/08/13 03:51:21;;;;;;;24.20;13.80;;;18.20;99.90;;;;;;5008752;28;20308;-48
2021/08/13 03:53:49;;;;;;;18.50;13.43;;;18.20;99.90;;;;;;5009288;28;20208;-49
2021/08/13 03:56:16;;;;;;;19.30;13.60;;;18.20;99.90;;;;;;5008814;28;20299;-48
2021/08/13 03:58:42;;;;;;;21.83;14.53;;;18.20;99.90;;;;;;5008554;28;20252;-48
2021/08/13 04:01:10;;;;;;;19.33;13.53;;;18.20;99.90;;;;;;5009034;28;20633;-48
2021/08/13 04:03:37;;;;;;;20.17;14.00;;;18.30;99.90;;;;;;5008149;28;20208;-48
2021/08/13 04:06:04;;;;;;;22.63;14.77;;;18.20;99.90;;;;;;5008305;28;20315;-48
2021/08/13 04:08:31;;;;;;;19.67;14.53;;;18.20;99.90;;;;;;5008303;28;20279;-48
2021/08/13 04:10:57;;;;;;;22.10;14.30;;;18.20;99.90;;;;;;5023846;28;20688;-48
2021/08/13 04:13:24;;;;;;;22.30;14.57;;;18.30;99.90;;;;;;5008183;28;20291;-48
2021/08/13 04:15:51;;;;;;;19.87;14.00;;;18.10;99.90;;;;;;5008196;28;20244;-49
2021/08/13 04:18:18;;;;;;;22.57;14.03;;;18.10;99.90;;;;;;5008316;28;20522;-48
2021/08/13 04:20:45;;;;;;;17.53;11.83;;;18.10;99.90;;;;;;5007920;28;20240;-49
2021/08/13 04:23:12;;;;;;;16.83;12.00;;;18.10;99.90;;;;;;5008558;28;20603;-48
2021/08/13 04:25:38;;;;;;;20.23;13.23;;;18.30;99.90;;;;;;5007602;28;20248;-48
2021/08/13 04:28:05;;;;;;;20.10;11.90;;;18.30;99.90;;;;;;5008352;28;20296;-48
2021/08/13 04:30:32;;;;;;;19.33;11.90;;;18.30;99.90;;;;;;5008217;28;20308;-48
2021/08/13 04:32:59;;;;;;;20.33;12.17;;;18.40;99.90;;;;;;5007580;28;20336;-49
2021/08/13 04:35:25;;;;;;;15.07;10.50;;;18.40;99.90;;;;;;5007114;28;20294;-49
2021/08/13 04:37:52;;;;;;;18.03;10.47;;;18.50;99.90;;;;;;5007715;28;20232;-49
2021/08/13 04:40:19;;;;;;;16.37;11.20;;;18.40;99.90;;;;;;5007450;28;20319;-48
2021/08/13 04:42:46;;;;;;;17.10;10.30;;;18.20;99.90;;;;;;5007889;28;20283;-48
2021/08/13 04:45:13;;;;;;;16.93;10.10;;;18.20;99.90;;;;;;5008143;28;20679;-48
2021/08/13 04:47:39;;;;;;;13.20;9.67;;;18.20;99.90;;;;;;5008061;28;20610;-49
2021/08/13 04:50:07;;;;;;;15.57;9.30;;;18.20;99.90;;;;;;5007754;28;20750;-48
2021/08/13 04:52:42;;;;;;;16.60;9.77;;;18.10;99.90;;;;;;5007693;28;20255;-48
2021/08/13 04:55:10;;;;;;;14.17;8.90;;;18.10;99.90;;;;;;5008375;28;20288;-49
2021/08/13 04:57:36;;;;;;;13.87;9.23;;;18.00;99.90;;;;;;5008307;28;20650;-49
2021/08/13 05:00:05;;;;;;;13.30;9.23;;;18.10;99.90;;;;;;5007436;28;20411;-49
2021/08/13 05:02:31;;;;;;;13.57;9.17;;;18.10;99.90;;;;;;5008469;28;20295;-48
2021/08/13 05:04:59;;;;;;;11.83;7.93;;;18.10;99.90;;;;;;5007936;28;20212;-49
2021/08/13 05:07:29;;;;;;;13.27;8.67;;;18.10;99.90;;;;;;5008096;28;20242;-48
2021/08/13 05:09:56;;;;;;;14.37;9.23;;;18.00;99.90;;;;;;5007877;28;20292;-48
2021/08/13 05:12:23;;;;;;;13.77;8.53;;;18.00;99.90;;;;;;5008260;28;20295;-48
2021/08/13 05:14:49;;;;;;;12.30;8.90;;;18.10;99.90;;;;;;5007996;28;20268;-48
2021/08/13 05:17:16;;;;;;;11.63;8.47;;;18.10;99.90;;;;;;5007602;28;20605;-48
2021/08/13 05:19:43;;;;;;;11.43;8.27;;;18.00;99.90;;;;;;5007156;28;20296;-48
2021/08/13 05:22:10;;;;;;;15.10;9.20;;;18.10;99.90;;;;;;5007003;28;20293;-48
2021/08/13 05:24:37;;;;;;;14.00;8.63;;;18.10;99.90;;;;;;5007250;28;20287;-48
2021/08/13 05:27:04;;;;;;;15.13;9.67;;;18.20;99.90;;;;;;5007337;28;20233;-48
2021/08/13 05:29:31;;;;;;;11.17;8.57;;;18.10;99.90;;;;;;5007498;28;20252;-48
2021/08/13 05:31:58;;;;;;;12.77;9.03;;;18.10;99.90;;;;;;5007782;28;20244;-48
2021/08/13 05:34:25;;;;;;;12.17;8.00;;;18.20;99.90;;;;;;5007151;28;20233;-48
2021/08/13 05:36:52;;;;;;;12.27;7.47;;;18.20;99.90;;;;;;5007796;28;20260;-49
2021/08/13 05:39:18;;;;;;;12.43;8.20;;;18.20;99.90;;;;;;5007599;28;20270;-49
2021/08/13 05:41:45;;;;;;;12.17;7.43;;;18.30;99.90;;;;;;5007608;28;20537;-48
2021/08/13 05:44:12;;;;;;;11.77;8.37;;;18.20;99.90;;;;;;5007160;28;20244;-49
2021/08/13 05:46:43;;;;;;;12.63;8.23;;;18.10;99.90;;;;;;5007503;28;20211;-49
2021/08/13 05:49:10;;;;;;;11.03;7.90;;;18.10;99.90;;;;;;5007830;28;20691;-48
2021/08/13 05:51:36;;;;;;;11.47;7.73;;;18.00;99.90;;;;;;5007587;28;20305;-48
2021/08/13 05:54:06;;;;;;;13.20;7.27;;;17.90;99.90;;;;;;5007775;28;20212;-48
2021/08/13 05:56:32;;;;;;;11.77;7.37;;;17.90;99.90;;;;;;5006812;28;20248;-48
2021/08/13 05:59:02;;;;;;;10.53;7.80;;;18.10;99.90;;;;;;5007266;28;20744;-48
2021/08/13 06:01:29;;;;;;;10.00;6.53;;;18.00;99.90;;;;;;5007236;28;20246;-49
2021/08/13 06:03:56;;;;;;;14.13;8.13;;;18.20;99.90;;;;;;5011156;28;20206;-48
2021/08/13 06:06:23;;;;;;;13.00;7.60;;;18.20;99.90;;;;;;5011427;28;20211;-48
2021/08/13 06:08:49;;;;;;;11.57;7.07;;;18.10;99.90;;;;;;5010574;28;20240;-49
2021/08/13 06:11:16;;;;;;;10.97;7.00;;;18.00;99.90;;;;;;5011491;28;20285;-48
2021/08/13 06:13:43;;;;;;;12.97;7.17;;;18.10;99.90;;;;;;5010943;28;20363;-48
2021/08/13 06:16:10;;;;;;;11.67;7.53;;;18.00;99.90;;;;;;5010667;28;20245;-48
2021/08/13 06:18:37;;;;;;;11.40;6.40;;;18.00;99.90;;;;;;5010603;28;20316;-48
2021/08/13 06:21:04;;;;;;;12.80;7.77;;;18.00;99.90;;;;;;5010303;28;20206;-49
2021/08/13 06:23:30;;;;;;;12.07;6.87;;;18.10;99.90;;;;;;5010875;28;20680;-48
2021/08/13 06:25:57;;;;;;;9.87;6.80;;;18.00;99.90;;;;;;5010415;28;20720;-48
2021/08/13 06:28:24;;;;;;;11.77;6.53;;;17.90;99.90;;;;;;5010513;28;20216;-49
2021/08/13 06:30:51;;;;;;;10.00;6.70;;;17.90;99.90;;;;;;5010532;28;20306;-48
2021/08/13 06:33:18;;;;;;;12.10;6.07;;;18.10;99.90;;;;;;5010597;28;20206;-49
2021/08/13 06:35:44;;;;;;;10.47;5.97;;;18.20;99.90;;;;;;5010382;28;20232;-49
2021/08/13 06:38:11;;;;;;;9.20;6.37;;;18.30;99.90;;;;;;5010131;28;20213;-49
2021/08/13 06:40:38;;;;;;;10.67;6.23;;;18.20;99.90;;;;;;5009502;28;20323;-49
2021/08/13 06:43:05;;;;;;;8.67;5.60;;;18.20;99.90;;;;;;5009568;28;20274;-49
2021/08/13 06:45:32;;;;;;;11.30;6.13;;;18.40;99.90;;;;;;5010005;28;20291;-49
2021/08/13 06:47:59;;;;;;;9.90;5.53;;;18.50;99.90;;;;;;5009710;28;20326;-49
2021/08/13 06:50:26;;;;;;;12.63;5.57;;;18.40;99.90;;;;;;5009416;28;20229;-49
2021/08/13 06:52:52;;;;;;;7.17;5.20;;;18.60;99.90;;;;;;5009375;28;20223;-48
2021/08/13 06:55:20;;;;;;;6.47;4.70;;;18.70;99.90;;;;;;5008957;28;20291;-49
2021/08/13 06:57:47;;;;;;;7.73;4.80;;;18.80;99.90;;;;;;5009109;28;20216;-49
2021/08/13 07:00:15;;;;;;;7.43;4.47;;;18.80;99.90;;;;;;5009988;28;20837;-50
2021/08/13 07:02:46;;;;;;;7.87;4.83;;;18.80;99.90;;;;;;5009578;28;20614;-47
2021/08/13 07:05:17;;;;;;;8.47;5.30;;;18.80;99.90;;;;;;5008816;28;20292;-48
2021/08/13 07:07:44;;;;;;;9.13;5.50;;;18.90;99.90;;;;;;5009336;28;20248;-49
2021/08/13 07:10:11;;;;;;;8.17;5.00;;;18.90;99.90;;;;;;5009559;28;20213;-48
2021/08/13 07:12:39;;;;;;;8.33;4.53;;;18.90;99.90;;;;;;5008912;28;20268;-49
2021/08/13 07:15:09;;;;;;;6.53;4.27;;;18.90;99.90;;;;;;5009067;28;20556;-48
2021/08/13 07:17:37;;;;;;;9.77;5.00;;;18.90;99.90;;;;;;5008827;28;20201;-49
2021/08/13 07:20:05;;;;;;;10.07;5.33;;;18.90;99.90;;;;;;5008733;28;20554;-48
2021/08/13 07:22:32;;;;;;;10.77;5.20;;;18.80;99.90;;;;;;5009146;28;20208;-49
2021/08/13 07:24:59;;;;;;;6.53;4.97;;;19.00;99.90;;;;;;5023782;28;20216;-49
2021/08/13 07:27:28;;;;;;;8.67;5.30;;;19.10;99.90;;;;;;5010073;28;20256;-49
2021/08/13 07:29:55;;;;;;;7.60;5.13;;;19.00;99.90;;;;;;5009243;28;20193;-49
2021/08/13 07:32:22;;;;;;;7.20;4.40;;;19.00;99.90;;;;;;5009772;28;20656;-49
2021/08/13 07:34:49;;;;;;;10.53;4.97;;;19.20;99.90;;;;;;5008303;28;20572;-49
2021/08/13 07:37:20;;;;;;;7.37;4.90;;;19.20;99.90;;;;;;5009345;28;20278;-49
2021/08/13 07:39:48;;;;;;;8.03;5.27;;;19.30;99.90;;;;;;5008729;28;20236;-48
2021/08/13 07:42:16;;;;;;;6.23;4.47;;;19.50;99.90;;;;;;5009336;28;20212;-49
2021/08/13 07:44:43;;;;;;;8.23;5.10;;;19.50;99.90;;;;;;5008474;28;20634;-49
2021/08/13 07:47:11;;;;;;;8.60;5.50;;;19.70;99.90;;;;;;5009106;28;20645;-49
2021/08/13 07:49:38;;;;;;;7.70;5.20;;;19.50;99.90;;;;;;5008000;28;20305;-49
2021/08/13 07:52:05;;;;;;;8.43;5.87;;;19.60;99.90;;;;;;5008980;28;20226;-49
2021/08/13 07:54:32;;;;;;;8.27;4.53;;;19.70;99.90;;;;;;5006875;28;20308;-49
2021/08/13 07:56:59;;;;;;;9.37;4.63;;;19.70;99.90;;;;;;5007992;28;20589;-48
2021/08/13 07:59:26;;;;;;;8.83;5.13;;;19.80;99.90;;;;;;5008401;28;20238;-49
2021/08/13 08:01:53;;;;;;;9.53;5.60;;;19.70;99.90;;;;;;5009288;28;20291;-48
2021/08/13 08:04:20;;;;;;;7.63;4.90;;;20.00;99.90;;;;;;5008436;28;20703;-49
2021/08/13 08:06:47;;;;;;;7.03;4.87;;;20.20;99.90;;;;;;5008756;28;20585;-49
2021/08/13 08:09:14;;;;;;;10.17;5.50;;;20.00;99.90;;;;;;5008324;28;20237;-48
2021/08/13 08:11:40;;;;;;;8.67;5.43;;;20.10;99.90;;;;;;5008707;28;20719;-48
2021/08/13 08:14:08;;;;;;;6.83;4.83;;;20.30;99.90;;;;;;5009126;28;20236;-48
2021/08/13 08:16:35;;;;;;;9.73;5.17;;;20.40;99.90;;;;;;5008507;28;20254;-49
2021/08/13 08:19:02;;;;;;;9.20;5.00;;;20.60;99.90;;;;;;5008527;28;20211;-48
2021/08/13 08:21:29;;;;;;;10.93;5.43;;;20.60;63.90;;;;;;5007786;28;20298;-49
2021/08/13 08:23:57;;;;;;;6.60;4.50;;;20.50;31.10;;;;;;5006859;28;20212;-48
2021/08/13 08:26:24;;;;;;;8.77;5.00;;;20.60;1.00;;;;;;5007782;28;20235;-49
2021/08/13 08:28:52;;;;;;;9.37;5.03;;;20.70;1.00;;;;;;5008010;28;20219;-48
2021/08/13 08:31:19;;;;;;;5.67;3.87;;;20.70;1.00;;;;;;5007902;28;20445;-48
2021/08/13 08:33:46;;;;;;;8.50;4.40;;;20.90;1.00;;;;;;5008077;28;20689;-48
2021/08/13 08:36:13;;;;;;;8.83;4.20;;;21.30;1.00;;;;;;5007660;28;20250;-48
2021/08/13 08:38:40;;;;;;;5.77;3.73;;;21.10;1.00;;;;;;5008133;28;20295;-48
2021/08/13 08:41:08;;;;;;;7.20;4.00;;;20.70;1.00;;;;;;5007518;28;20247;-48
2021/08/13 08:43:36;;;;;;;8.43;4.40;;;20.70;1.00;;;;;;5007787;28;20199;-49
2021/08/13 08:46:04;;;;;;;7.13;4.03;;;20.60;1.00;;;;;;5007753;28;20233;-49
2021/08/13 08:48:36;;;;;;;5.70;3.37;;;20.80;1.00;;;;;;5007573;28;20258;-49
2021/08/13 08:51:04;;;;;;;6.77;3.77;;;20.80;1.00;;;;;;5007716;28;20626;-48
2021/08/13 08:53:33;;;;;;;7.53;4.10;;;20.90;1.00;;;;;;5007225;28;20224;-48
2021/08/13 08:56:00;;;;;;;5.87;3.47;;;20.90;1.00;;;;;;5007916;28;20655;-48
2021/08/13 08:58:32;;;;;;;5.47;3.47;;;20.80;1.00;;;;;;5008496;28;20567;-48
2021/08/13 09:01:01;;;;;;;4.67;3.07;;;21.00;1.00;;;;;;5007816;28;20202;-48
2021/08/13 09:03:28;;;;;;;7.47;3.10;;;21.10;99.90;;;;;;5022363;28;20587;-48
2021/08/13 09:05:55;;;;;;;5.93;3.20;;;21.30;1.00;;;;;;5007250;28;20850;-49
2021/08/13 09:08:22;;;;;;;3.67;2.90;;;21.50;99.90;;;;;;5007953;28;20302;-49
2021/08/13 09:10:51;;;;;;;4.83;3.33;;;21.40;99.90;;;;;;5007733;28;20292;-49
2021/08/13 09:13:22;;;;;;;5.90;3.10;;;21.30;99.90;;;;;;5008244;28;20224;-48
2021/08/13 09:15:50;;;;;;;5.20;3.23;;;21.20;1.00;;;;;;5007572;28;20271;-48
2021/08/13 09:18:25;;;;;;;4.00;2.90;;;21.10;1.00;;;;;;5007189;28;20291;-49
2021/08/13 09:20:57;;;;;;;6.33;3.37;;;21.10;1.00;;;;;;5007213;28;20303;-48
2021/08/13 09:23:36;;;;;;;4.73;3.80;;;21.50;1.00;;;;;;5007406;28;20245;-48
2021/08/13 09:26:10;;;;;;;3.63;2.83;;;21.60;1.00;;;;;;5007076;28;20265;-49
2021/08/13 09:28:39;;;;;;;4.53;3.17;;;21.70;1.00;;;;;;5007246;28;20209;-49
2021/08/13 09:31:28;;;;;;;7.53;4.07;;;21.40;99.90;;;;;;5007118;28;20317;-49
2021/08/13 09:34:06;;;;;;;5.97;3.40;;;21.40;99.90;;;;;;5008287;28;20213;-49
2021/08/13 09:36:33;;;;;;;6.23;3.87;;;21.50;99.90;;;;;;5010958;28;20203;-49
2021/08/13 09:39:11;;;;;;;4.63;3.20;;;21.10;1.00;;;;;;5009553;28;20210;-49
2021/08/13 09:41:49;;;;;;;5.23;3.80;;;21.20;1.00;;;;;;5011134;28;20331;-48
2021/08/13 09:44:26;;;;;;;5.83;2.93;;;21.60;9.30;;;;;;5010081;28;20590;-49
2021/08/13 09:47:02;;;;;;;6.17;3.40;;;22.00;1.00;;;;;;5010945;28;20298;-48
2021/08/13 09:49:31;;;;;;;3.83;3.17;;;21.80;1.00;;;;;;5010644;28;20212;-49
2021/08/13 09:52:13;;;;;;;6.33;3.33;;;22.00;1.00;;;;;;5010799;28;20215;-48
2021/08/13 09:54:41;;;;;;;10.33;3.00;;;21.90;99.90;;;;;;5010532;28;20744;-48
2021/08/13 09:57:08;;;;;;;9.17;2.90;;;21.80;1.00;;;;;;5010925;28;20566;-48
2021/08/13 09:59:36;;;;;;;3.77;2.30;;;21.80;99.90;;;;;;5010531;28;20295;-48
2021/08/13 10:02:11;;;;;;;7.27;3.97;;;21.80;1.00;;;;;;5010568;28;20288;-48
2021/08/13 10:04:38;;;;;;;4.53;2.80;;;21.90;99.90;;;;;;5009692;28;20223;-48
2021/08/13 10:07:05;;;;;;;5.27;3.83;;;21.90;99.90;;;;;;5011063;28;20765;-48
2021/08/13 10:09:32;;;;;;;6.00;3.00;;;22.10;1.00;;;;;;5010406;28;20224;-48
2021/08/13 10:12:04;;;;;;;6.33;3.13;;;21.90;1.00;;;;;;5010838;28;20590;-48
2021/08/13 10:14:42;;;;;;;5.43;3.00;;;21.80;1.00;;;;;;5010390;28;20377;-49
2021/08/13 10:17:13;;;;;;;3.50;2.67;;;22.00;99.90;;;;;;5010834;28;20212;-48
2021/08/13 10:19:44;;;;;;;7.80;3.87;;;22.10;1.00;;;;;;5009742;28;20206;-48
2021/08/13 10:22:12;;;;;;;4.90;3.40;;;21.90;14.20;;;;;;5010143;28;20299;-48
2021/08/13 10:24:40;;;;;;;6.40;2.97;;;22.00;1.00;;;;;;5011107;28;20244;-48
2021/08/13 10:27:07;;;;;;;6.47;3.67;;;22.30;1.00;;;;;;5010495;28;20319;-49
2021/08/13 10:29:34;;;;;;;4.80;3.40;;;22.40;1.00;;;;;;5009794;28;20589;-49
2021/08/13 10:32:02;;;;;;;6.60;2.70;;;22.80;99.90;;;;;;5010442;28;20686;-48
2021/08/13 10:34:29;;;;;;;5.63;3.53;;;22.80;99.90;;;;;;5009919;28;20278;-48
2021/08/13 10:36:57;;;;;;;7.77;3.00;;;22.80;1.00;;;;;;5010933;28;20272;-48
2021/08/13 10:39:29;;;;;;;6.47;2.87;;;22.70;99.90;;;;;;5009720;28;20292;-48
2021/08/13 10:42:04;;;;;;;5.57;3.20;;;22.70;69.20;;;;;;5010275;28;20312;-48
2021/08/13 10:44:38;;;;;;;7.97;3.37;;;22.30;1.00;;;;;;5009595;28;20307;-48
2021/08/13 10:47:13;;;;;;;7.27;2.93;;;22.40;1.00;;;;;;5009360;28;20235;-48
2021/08/13 10:49:45;;;;;;;5.03;3.20;;;22.20;1.00;;;;;;5009704;28;20247;-48
2021/08/13 10:52:12;;;;;;;6.53;2.73;;;21.80;1.00;;;;;;5008275;28;20217;-48
2021/08/13 10:54:45;;;;;;;5.57;2.83;;;22.00;1.00;;;;;;5009894;28;20205;-48
2021/08/13 10:57:14;;;;;;;6.83;3.20;;;22.40;99.90;;;;;;5010490;28;20712;-49
2021/08/13 10:59:41;;;;;;;4.70;3.07;;;22.60;1.00;;;;;;5009525;28;20205;-48
2021/08/13 11:02:18;;;;;;;7.57;3.10;;;22.60;1.00;;;;;;5009745;28;20205;-48
2021/08/13 11:04:47;;;;;;;6.83;3.30;;;22.90;99.90;;;;;;5008731;28;20279;-48
2021/08/13 11:07:34;;;;;;;7.20;2.97;;;22.90;9.50;;;;;;5009991;28;20319;-48
2021/08/13 11:10:01;;;;;;;7.47;3.37;;;23.10;1.00;;;;;;5009094;28;20308;-48
2021/08/13 11:12:28;;;;;;;4.57;3.10;;;23.20;1.00;;;;;;5009251;28;20618;-48
2021/08/13 11:14:55;;;;;;;8.17;3.13;;;22.90;1.00;;;;;;5009591;28;20229;-49
2021/08/13 11:17:43;;;;;;;8.00;3.67;;;23.10;1.00;;;;;;5008814;28;20190;-48
2021/08/13 11:20:14;;;;;;;8.77;3.10;;;23.00;99.90;;;;;;5008703;28;20252;-48
2021/08/13 11:22:42;;;;;;;6.10;2.60;;;23.20;99.90;;;;;;5009306;28;20212;-48
2021/08/13 11:25:14;;;;;;;6.37;2.50;;;23.20;1.00;;;;;;5009343;28;20237;-48
2021/08/13 11:28:20;;;;;;;3.90;2.40;;;23.40;1.00;;;;;;5008748;28;20297;-48
2021/08/13 11:30:49;;;;;;;4.17;2.13;;;23.40;1.00;;;;;;5008248;28;20226;-48
2021/08/13 11:33:25;;;;;;;5.40;1.87;;;23.00;99.90;;;;;;5008908;28;20221;-47
2021/08/13 11:35:59;;;;;;;5.37;2.17;;;22.80;1.00;;;;;;5009041;28;20676;-48
2021/08/13 11:38:43;;;;;;;5.40;1.90;;;22.80;1.00;;;;;;5009976;28;20208;-48
2021/08/13 11:41:25;;;;;;;6.67;2.10;;;22.60;1.00;;;;;;5009084;28;20229;-48
2021/08/13 11:43:54;;;;;;;4.33;2.00;;;22.60;91.30;;;;;;5009103;28;20282;-48
2021/08/13 11:46:32;;;;;;;4.07;1.73;;;22.70;1.00;;;;;;5008768;28;20317;-48
2021/08/13 11:49:01;;;;;;;3.77;1.67;;;22.70;1.00;;;;;;5008199;28;20219;-48
2021/08/13 11:51:29;;;;;;;6.20;2.27;;;22.80;99.90;;;;;;5023107;28;20725;-49
2021/08/13 11:53:57;;;;;;;3.27;1.93;;;22.60;99.90;;;;;;5009126;28;20344;-49
2021/08/13 11:56:31;;;;;;;7.10;2.73;;;22.70;1.00;;;;;;5009151;28;20324;-48
2021/08/13 11:58:58;;;;;;;5.87;2.70;;;22.60;1.00;;;;;;5008125;28;20295;-49
2021/08/13 12:01:26;;;;;;;7.33;2.37;;;22.80;1.00;;;;;;5008780;28;20599;-49
2021/08/13 12:03:54;;;;;;;3.67;2.53;;;23.00;99.90;;;;;;5008378;28;20231;-49
2021/08/13 12:06:22;;;;;;;5.30;2.70;;;23.10;1.00;;;;;;5007955;28;20237;-49
2021/08/13 12:08:49;;;;;;;5.77;2.27;;;23.00;1.00;;;;;;5008980;28;20236;-49
2021/08/13 12:11:22;;;;;;;5.23;2.30;;;22.90;24.40;;;;;;5007587;28;20328;-49
2021/08/13 12:13:50;;;;;;;5.77;2.47;;;23.00;1.00;;;;;;5008035;28;20625;-49
2021/08/13 12:16:18;;;;;;;5.30;2.37;;;23.00;62.20;;;;;;5008034;28;20206;-49
2021/08/13 12:18:46;;;;;;;8.83;2.50;;;22.90;1.00;;;;;;5007611;28;20197;-49
2021/08/13 12:21:14;;;;;;;8.23;2.13;;;22.90;1.00;;;;;;5006117;28;20241;-49
2021/08/13 12:23:53;;;;;;;6.47;2.03;;;22.60;99.90;;;;;;5008402;28;20267;-49
2021/08/13 12:26:26;;;;;;;3.27;1.40;;;22.70;1.00;;;;;;5007710;28;20236;-50
2021/08/13 12:28:53;;;;;;;2.50;1.50;;;22.40;99.90;;;;;;5007445;28;20619;-49
2021/08/13 12:31:20;;;;;;;3.70;1.50;;;22.20;1.00;;;;;;5007422;28;20314;-49
2021/08/13 12:33:56;;;;;;;5.27;1.70;;;22.40;66.10;;;;;;5007328;28;20274;-49
2021/08/13 12:36:24;;;;;;;4.90;1.80;;;22.50;1.00;;;;;;5007998;28;20255;-49
2021/08/13 12:38:56;;;;;;;5.60;1.70;;;22.40;1.00;;;;;;5008157;28;20263;-48
2021/08/13 12:41:23;;;;;;;3.23;1.60;;;22.30;1.00;;;;;;5007789;28;20334;-48
2021/08/13 12:43:50;;;;;;;7.60;1.90;;;22.30;1.00;;;;;;5008093;28;20208;-48
2021/08/13 12:46:17;;;;;;;4.43;1.60;;;22.30;1.00;;;;;;5007783;28;20229;-48
2021/08/13 12:48:44;;;;;;;3.90;1.33;;;22.30;99.90;;;;;;5007070;28;20240;-48
2021/08/13 12:51:26;;;;;;;3.57;1.47;;;22.30;1.00;;;;;;5008419;28;20620;-49